KJKJ

Details ICAO KJKJ
Name MOORHEAD MUNI
Region United States
Timezone America/Chicago (UTC-6.0)
Plans Departing 1
Arriving 0
Stats Elevation 917 ft / 280 m (AMSL)
Location 46.839271° -96.663745°
Runways 1
Magnetic Variation 2.823° E
Sunrise 2017-12-16 14:07:24 UTC / 2017-12-16 08:07:24 Local
Sunset 2017-12-16 22:40:11 UTC / 2017-12-16 16:40:11 Local
Advertisement - Login to hide

Runways

ID Width Length Bearing (true) Bearing (mag) Surface Threshold Offset Overrun Length
12 75 ft / 23 m 4,291 ft / 1,308 m 116.47° 113.65° Asphalt 0 ft / 0 m 0 ft / 0 m
30 75 ft / 23 m 4,291 ft / 1,308 m 296.48° 293.66° Asphalt 0 ft / 0 m 0 ft / 0 m

Map

Weather


0- 5 10 15 20 25 30 35+ Temperature / ° C

Clouds and Precipitation
Forecast for 2017-12-16 12:00 UTC. Updated a few seconds ago

Ground ~20,000 ft ~40,000 ft Winds

METAR

KJKJ 160915Z AUTO 00000KT 10SM CLR M04/M06 A2966 RMK AO2

TAF

Not found

Frequencies

Recorded 120.00 MHz AWOS 3
Approach 120.40 MHz FARGO APP/DEP
Unicom 123.00 MHz CTAF/UNICOM
Warning: Do not use this data for real-world aviation or navigation. No guarantee of current accuracy is given.